sensor_id;sensor_type;location;lat;lon;timestamp;pressure;altitude;pressure_sealevel;temperature;humidity
27358;BME280;14831;50.474;7.616;2022-12-17T00:03:02;98440;;;-8.5;97.1
27358;BME280;14831;50.474;7.616;2022-12-17T00:08:02;98450;;;-8.5;97.4
27358;BME280;14831;50.474;7.616;2022-12-17T00:13:02;98440;;;-8.4;96.7
27358;BME280;14831;50.474;7.616;2022-12-17T00:18:02;98450;;;-8.4;96.3
27358;BME280;14831;50.474;7.616;2022-12-17T00:23:02;98450;;;-8.4;96.5
27358;BME280;14831;50.474;7.616;2022-12-17T00:28:02;98450;;;-8.4;97.1
27358;BME280;14831;50.474;7.616;2022-12-17T00:33:02;98450;;;-8.5;96.8
27358;BME280;14831;50.474;7.616;2022-12-17T00:38:02;98450;;;-8.5;96.8
27358;BME280;14831;50.474;7.616;2022-12-17T00:43:03;98450;;;-8.6;96.3
27358;BME280;14831;50.474;7.616;2022-12-17T00:48:02;98470;;;-8.6;96.2
27358;BME280;14831;50.474;7.616;2022-12-17T00:53:02;98460;;;-8.7;96.3
27358;BME280;14831;50.474;7.616;2022-12-17T00:58:02;98470;;;-8.7;96.3
27358;BME280;14831;50.474;7.616;2022-12-17T01:03:04;98470;;;-8.7;96.4
27358;BME280;14831;50.474;7.616;2022-12-17T01:08:05;98480;;;-8.6;96.6
27358;BME280;14831;50.474;7.616;2022-12-17T01:13:02;98490;;;-8.7;96.6
27358;BME280;14831;50.474;7.616;2022-12-17T01:18:02;98480;;;-8.7;96.2
27358;BME280;14831;50.474;7.616;2022-12-17T01:23:02;98480;;;-8.7;96.5
27358;BME280;14831;50.474;7.616;2022-12-17T01:28:02;98490;;;-8.7;96.4
27358;BME280;14831;50.474;7.616;2022-12-17T01:33:02;98490;;;-8.7;96.1
27358;BME280;14831;50.474;7.616;2022-12-17T01:38:02;98490;;;-8.7;96.2
27358;BME280;14831;50.474;7.616;2022-12-17T01:43:04;98500;;;-8.6;97.1
27358;BME280;14831;50.474;7.616;2022-12-17T01:48:02;98500;;;-8.6;96.2
27358;BME280;14831;50.474;7.616;2022-12-17T01:53:02;98510;;;-8.5;96.1
27358;BME280;14831;50.474;7.616;2022-12-17T01:58:02;98520;;;-8.5;96.1
27358;BME280;14831;50.474;7.616;2022-12-17T02:03:02;98520;;;-8.5;96.3
27358;BME280;14831;50.474;7.616;2022-12-17T02:08:03;98520;;;-8.5;97.0
27358;BME280;14831;50.474;7.616;2022-12-17T02:13:03;98530;;;-8.5;96.7
27358;BME280;14831;50.474;7.616;2022-12-17T02:18:04;98530;;;-8.5;96.7
27358;BME280;14831;50.474;7.616;2022-12-17T02:23:03;98530;;;-8.5;96.2
27358;BME280;14831;50.474;7.616;2022-12-17T02:28:02;98520;;;-8.5;96.1
27358;BME280;14831;50.474;7.616;2022-12-17T02:33:02;98520;;;-8.5;96.0
27358;BME280;14831;50.474;7.616;2022-12-17T02:38:14;98520;;;-8.5;96.4
27358;BME280;14831;50.474;7.616;2022-12-17T02:43:02;98530;;;-8.4;97.3
27358;BME280;14831;50.474;7.616;2022-12-17T02:48:02;98520;;;-8.4;97.0
27358;BME280;14831;50.474;7.616;2022-12-17T02:53:02;98520;;;-8.3;97.3
27358;BME280;14831;50.474;7.616;2022-12-17T02:58:02;98540;;;-8.2;96.5
27358;BME280;14831;50.474;7.616;2022-12-17T03:03:02;98550;;;-8.2;96.7
27358;BME280;14831;50.474;7.616;2022-12-17T03:08:02;98540;;;-8.2;97.1
27358;BME280;14831;50.474;7.616;2022-12-17T03:13:02;98530;;;-8.2;96.3
27358;BME280;14831;50.474;7.616;2022-12-17T03:18:02;98550;;;-8.2;96.4
27358;BME280;14831;50.474;7.616;2022-12-17T03:23:02;98550;;;-8.2;96.1
27358;BME280;14831;50.474;7.616;2022-12-17T03:28:02;98550;;;-8.3;96.1
27358;BME280;14831;50.474;7.616;2022-12-17T03:33:02;98550;;;-8.3;96.1
27358;BME280;14831;50.474;7.616;2022-12-17T03:38:05;98540;;;-8.2;96.4
27358;BME280;14831;50.474;7.616;2022-12-17T03:43:04;98540;;;-8.2;96.2
27358;BME280;14831;50.474;7.616;2022-12-17T03:48:02;98550;;;-8.2;96.4
27358;BME280;14831;50.474;7.616;2022-12-17T03:53:03;98550;;;-8.1;96.3
27358;BME280;14831;50.474;7.616;2022-12-17T03:58:02;98550;;;-8.1;96.6
27358;BME280;14831;50.474;7.616;2022-12-17T04:03:02;98550;;;-7.9;96.9
27358;BME280;14831;50.474;7.616;2022-12-17T04:08:02;98570;;;-7.9;97.5
27358;BME280;14831;50.474;7.616;2022-12-17T04:13:02;98560;;;-7.7;97.6
27358;BME280;14831;50.474;7.616;2022-12-17T04:18:02;98570;;;-7.8;97.2
27358;BME280;14831;50.474;7.616;2022-12-17T04:23:02;98580;;;-7.8;96.8
27358;BME280;14831;50.474;7.616;2022-12-17T04:28:02;98590;;;-7.8;96.6
27358;BME280;14831;50.474;7.616;2022-12-17T04:33:02;98590;;;-7.8;96.9
27358;BME280;14831;50.474;7.616;2022-12-17T04:38:02;98590;;;-7.7;96.7
27358;BME280;14831;50.474;7.616;2022-12-17T04:43:05;98590;;;-7.9;96.4
27358;BME280;14831;50.474;7.616;2022-12-17T04:48:02;98600;;;-7.9;96.5
27358;BME280;14831;50.474;7.616;2022-12-17T04:53:03;98600;;;-8.0;96.4
27358;BME280;14831;50.474;7.616;2022-12-17T04:58:02;98600;;;-8.0;96.3
27358;BME280;14831;50.474;7.616;2022-12-17T05:03:02;98600;;;-8.0;96.5
27358;BME280;14831;50.474;7.616;2022-12-17T05:08:02;98600;;;-8.0;96.4
27358;BME280;14831;50.474;7.616;2022-12-17T05:13:02;98600;;;-7.9;96.6
27358;BME280;14831;50.474;7.616;2022-12-17T05:18:03;98620;;;-7.8;96.6
27358;BME280;14831;50.474;7.616;2022-12-17T05:23:03;98630;;;-7.7;97.0
27358;BME280;14831;50.474;7.616;2022-12-17T05:28:02;98630;;;-7.7;96.6
27358;BME280;14831;50.474;7.616;2022-12-17T05:33:02;98620;;;-7.7;96.8
27358;BME280;14831;50.474;7.616;2022-12-17T05:38:02;98620;;;-7.6;96.9
27358;BME280;14831;50.474;7.616;2022-12-17T05:43:02;98630;;;-7.6;96.8
27358;BME280;14831;50.474;7.616;2022-12-17T05:48:02;98630;;;-7.6;96.8
27358;BME280;14831;50.474;7.616;2022-12-17T05:53:02;98640;;;-7.6;96.9
27358;BME280;14831;50.474;7.616;2022-12-17T05:58:02;98650;;;-7.5;97.0
27358;BME280;14831;50.474;7.616;2022-12-17T06:03:02;98660;;;-7.4;97.4
27358;BME280;14831;50.474;7.616;2022-12-17T06:08:02;98650;;;-7.3;97.3
27358;BME280;14831;50.474;7.616;2022-12-17T06:13:02;98660;;;-7.2;97.1
27358;BME280;14831;50.474;7.616;2022-12-17T06:18:02;98660;;;-7.1;97.2
27358;BME280;14831;50.474;7.616;2022-12-17T06:23:02;98670;;;-7.1;97.7
27358;BME280;14831;50.474;7.616;2022-12-17T06:28:02;98680;;;-7.1;97.5
27358;BME280;14831;50.474;7.616;2022-12-17T06:33:02;98700;;;-7.0;97.5
27358;BME280;14831;50.474;7.616;2022-12-17T06:38:02;98690;;;-7.0;97.5
27358;BME280;14831;50.474;7.616;2022-12-17T06:43:02;98700;;;-6.9;97.3
27358;BME280;14831;50.474;7.616;2022-12-17T06:48:02;98710;;;-7.1;97.2
27358;BME280;14831;50.474;7.616;2022-12-17T06:53:03;98720;;;-7.1;97.3
27358;BME280;14831;50.474;7.616;2022-12-17T06:58:02;98720;;;-7.1;97.4
27358;BME280;14831;50.474;7.616;2022-12-17T07:03:02;98720;;;-7.0;97.4
27358;BME280;14831;50.474;7.616;2022-12-17T07:08:02;98730;;;-7.0;97.3
27358;BME280;14831;50.474;7.616;2022-12-17T07:13:03;98730;;;-7.1;97.1
27358;BME280;14831;50.474;7.616;2022-12-17T07:18:02;98740;;;-7.2;97.4
27358;BME280;14831;50.474;7.616;2022-12-17T07:23:02;98750;;;-7.1;97.7
27358;BME280;14831;50.474;7.616;2022-12-17T07:28:02;98730;;;-7.2;97.1
27358;BME280;14831;50.474;7.616;2022-12-17T07:33:02;98740;;;-7.3;96.9
27358;BME280;14831;50.474;7.616;2022-12-17T07:38:02;98740;;;-7.3;97.1
27358;BME280;14831;50.474;7.616;2022-12-17T07:43:08;98750;;;-7.5;97.2
27358;BME280;14831;50.474;7.616;2022-12-17T07:48:02;98750;;;-7.5;97.0
27358;BME280;14831;50.474;7.616;2022-12-17T07:53:02;98770;;;-7.5;96.9
27358;BME280;14831;50.474;7.616;2022-12-17T07:58:02;98780;;;-7.4;97.2
27358;BME280;14831;50.474;7.616;2022-12-17T08:03:02;98780;;;-7.3;97.5
27358;BME280;14831;50.474;7.616;2022-12-17T08:08:06;98780;;;-7.5;96.9
27358;BME280;14831;50.474;7.616;2022-12-17T08:13:03;98790;;;-7.5;96.8
27358;BME280;14831;50.474;7.616;2022-12-17T08:18:02;98800;;;-7.5;96.9
27358;BME280;14831;50.474;7.616;2022-12-17T08:23:02;98800;;;-7.4;97.1
27358;BME280;14831;50.474;7.616;2022-12-17T08:28:02;98800;;;-7.3;97.1
27358;BME280;14831;50.474;7.616;2022-12-17T08:33:02;98810;;;-7.5;96.8
27358;BME280;14831;50.474;7.616;2022-12-17T08:38:02;98820;;;-7.5;96.8
27358;BME280;14831;50.474;7.616;2022-12-17T08:43:02;98820;;;-7.4;97.1
27358;BME280;14831;50.474;7.616;2022-12-17T08:48:02;98830;;;-7.3;96.6
27358;BME280;14831;50.474;7.616;2022-12-17T08:53:02;98830;;;-7.4;97.2
27358;BME280;14831;50.474;7.616;2022-12-17T08:58:02;98830;;;-7.3;97.1
27358;BME280;14831;50.474;7.616;2022-12-17T09:03:02;98830;;;-7.5;96.6
27358;BME280;14831;50.474;7.616;2022-12-17T09:08:03;98830;;;-7.6;96.6
27358;BME280;14831;50.474;7.616;2022-12-17T09:13:02;98840;;;-7.6;96.9
27358;BME280;14831;50.474;7.616;2022-12-17T09:18:02;98830;;;-7.7;96.5
27358;BME280;14831;50.474;7.616;2022-12-17T09:23:02;98830;;;-7.8;97.0
27358;BME280;14831;50.474;7.616;2022-12-17T09:28:02;98840;;;-7.7;96.1
27358;BME280;14831;50.474;7.616;2022-12-17T09:33:02;98840;;;-7.6;97.0
27358;BME280;14831;50.474;7.616;2022-12-17T09:38:02;98850;;;-7.4;96.9
27358;BME280;14831;50.474;7.616;2022-12-17T09:43:03;98870;;;-7.1;96.6
27358;BME280;14831;50.474;7.616;2022-12-17T09:48:04;98860;;;-6.9;96.8
27358;BME280;14831;50.474;7.616;2022-12-17T09:53:02;98870;;;-6.9;96.8
27358;BME280;14831;50.474;7.616;2022-12-17T09:58:02;98870;;;-7.3;97.1
27358;BME280;14831;50.474;7.616;2022-12-17T10:03:02;98870;;;-7.3;96.4
27358;BME280;14831;50.474;7.616;2022-12-17T10:08:03;98870;;;-7.6;96.2
27358;BME280;14831;50.474;7.616;2022-12-17T10:13:06;98880;;;-7.4;96.9
27358;BME280;14831;50.474;7.616;2022-12-17T10:18:03;98880;;;-7.1;96.6
27358;BME280;14831;50.474;7.616;2022-12-17T10:23:02;98880;;;-6.9;96.9
27358;BME280;14831;50.474;7.616;2022-12-17T10:28:04;98890;;;-6.7;96.3
27358;BME280;14831;50.474;7.616;2022-12-17T10:33:03;98910;;;-6.5;96.7
27358;BME280;14831;50.474;7.616;2022-12-17T10:38:08;98900;;;-6.9;96.6
27358;BME280;14831;50.474;7.616;2022-12-17T10:43:02;98900;;;-6.8;96.8
27358;BME280;14831;50.474;7.616;2022-12-17T10:48:02;98900;;;-6.7;96.8
27358;BME280;14831;50.474;7.616;2022-12-17T10:53:03;98910;;;-6.9;96.0
27358;BME280;14831;50.474;7.616;2022-12-17T10:58:02;98910;;;-6.7;97.2
27358;BME280;14831;50.474;7.616;2022-12-17T11:03:02;98930;;;-6.5;97.0
27358;BME280;14831;50.474;7.616;2022-12-17T11:08:02;98860;;;-6.7;96.5
27358;BME280;14831;50.474;7.616;2022-12-17T11:13:02;98860;;;-6.6;96.9
27358;BME280;14831;50.474;7.616;2022-12-17T11:18:02;98880;;;-6.7;96.0
27358;BME280;14831;50.474;7.616;2022-12-17T11:23:02;98900;;;-6.8;96.9
27358;BME280;14831;50.474;7.616;2022-12-17T11:28:04;98910;;;-6.6;96.6
27358;BME280;14831;50.474;7.616;2022-12-17T11:33:04;98920;;;-6.6;96.9
27358;BME280;14831;50.474;7.616;2022-12-17T11:38:03;98920;;;-6.5;96.1
27358;BME280;14831;50.474;7.616;2022-12-17T11:43:04;98960;;;-6.3;96.8
27358;BME280;14831;50.474;7.616;2022-12-17T11:48:02;98930;;;-6.2;96.4
27358;BME280;14831;50.474;7.616;2022-12-17T11:53:04;98930;;;-6.0;97.0
27358;BME280;14831;50.474;7.616;2022-12-17T11:58:03;98950;;;-5.8;96.9
27358;BME280;14831;50.474;7.616;2022-12-17T12:03:05;98950;;;-5.7;96.9
27358;BME280;14831;50.474;7.616;2022-12-17T12:08:03;98990;;;-5.6;96.9
27358;BME280;14831;50.474;7.616;2022-12-17T12:13:03;98950;;;-5.5;97.1
27358;BME280;14831;50.474;7.616;2022-12-17T12:18:03;98960;;;-5.3;97.4
27358;BME280;14831;50.474;7.616;2022-12-17T12:23:03;98950;;;-5.4;97.2
27358;BME280;14831;50.474;7.616;2022-12-17T12:28:03;98950;;;-5.5;97.4
27358;BME280;14831;50.474;7.616;2022-12-17T12:33:04;98970;;;-5.3;97.3
27358;BME280;14831;50.474;7.616;2022-12-17T12:38:02;98970;;;-5.1;97.3
27358;BME280;14831;50.474;7.616;2022-12-17T12:43:03;98990;;;-5.0;97.3
27358;BME280;14831;50.474;7.616;2022-12-17T12:48:04;98980;;;-5.0;97.1
27358;BME280;14831;50.474;7.616;2022-12-17T12:53:02;98970;;;-5.1;97.4
27358;BME280;14831;50.474;7.616;2022-12-17T12:58:02;98980;;;-5.0;97.8
27358;BME280;14831;50.474;7.616;2022-12-17T13:03:05;98980;;;-5.1;97.8
27358;BME280;14831;50.474;7.616;2022-12-17T13:08:03;98980;;;-5.0;97.9
27358;BME280;14831;50.474;7.616;2022-12-17T13:13:05;98980;;;-5.1;97.7
27358;BME280;14831;50.474;7.616;2022-12-17T13:18:04;98970;;;-5.1;97.5
27358;BME280;14831;50.474;7.616;2022-12-17T13:23:04;98970;;;-5.2;97.6
27358;BME280;14831;50.474;7.616;2022-12-17T13:28:02;98980;;;-5.4;97.5
27358;BME280;14831;50.474;7.616;2022-12-17T13:33:05;99000;;;-5.4;97.7
27358;BME280;14831;50.474;7.616;2022-12-17T13:38:03;99000;;;-5.3;97.9
27358;BME280;14831;50.474;7.616;2022-12-17T13:43:02;99010;;;-5.3;97.8
27358;BME280;14831;50.474;7.616;2022-12-17T13:48:02;99020;;;-5.4;97.7
27358;BME280;14831;50.474;7.616;2022-12-17T13:53:09;99020;;;-5.2;98.0
27358;BME280;14831;50.474;7.616;2022-12-17T13:58:02;99020;;;-5.2;97.9
27358;BME280;14831;50.474;7.616;2022-12-17T14:03:08;99020;;;-5.2;98.1
27358;BME280;14831;50.474;7.616;2022-12-17T14:08:02;99020;;;-5.2;97.9
27358;BME280;14831;50.474;7.616;2022-12-17T14:13:03;99030;;;-5.3;98.0
27358;BME280;14831;50.474;7.616;2022-12-17T14:18:02;99030;;;-5.6;96.9
27358;BME280;14831;50.474;7.616;2022-12-17T14:23:02;99020;;;-5.8;97.1
27358;BME280;14831;50.474;7.616;2022-12-17T14:28:03;99020;;;-6.1;96.6
27358;BME280;14831;50.474;7.616;2022-12-17T14:33:02;99020;;;-6.4;96.6
27358;BME280;14831;50.474;7.616;2022-12-17T14:38:02;99010;;;-6.5;96.6
27358;BME280;14831;50.474;7.616;2022-12-17T14:43:02;99010;;;-6.6;96.8
27358;BME280;14831;50.474;7.616;2022-12-17T14:48:02;99020;;;-6.7;96.8
27358;BME280;14831;50.474;7.616;2022-12-17T14:53:03;99010;;;-6.8;96.9
27358;BME280;14831;50.474;7.616;2022-12-17T14:58:06;99020;;;-6.9;96.9
27358;BME280;14831;50.474;7.616;2022-12-17T15:03:02;99020;;;-6.9;97.0
27358;BME280;14831;50.474;7.616;2022-12-17T15:08:03;99020;;;-7.0;96.8
27358;BME280;14831;50.474;7.616;2022-12-17T15:13:02;99020;;;-7.1;96.8
27358;BME280;14831;50.474;7.616;2022-12-17T15:18:02;99020;;;-7.1;96.8
27358;BME280;14831;50.474;7.616;2022-12-17T15:23:02;99010;;;-7.2;96.8
27358;BME280;14831;50.474;7.616;2022-12-17T15:28:02;99020;;;-7.3;96.8
27358;BME280;14831;50.474;7.616;2022-12-17T15:33:02;99010;;;-7.4;96.7
27358;BME280;14831;50.474;7.616;2022-12-17T15:38:02;99010;;;-7.5;96.5
27358;BME280;14831;50.474;7.616;2022-12-17T15:43:02;99020;;;-7.6;96.2
27358;BME280;14831;50.474;7.616;2022-12-17T15:48:02;99020;;;-7.7;96.6
27358;BME280;14831;50.474;7.616;2022-12-17T15:53:02;99020;;;-7.7;96.3
27358;BME280;14831;50.474;7.616;2022-12-17T15:58:02;99020;;;-7.9;96.0
27358;BME280;14831;50.474;7.616;2022-12-17T16:03:02;99020;;;-8.2;95.8
27358;BME280;14831;50.474;7.616;2022-12-17T16:08:02;99010;;;-8.2;96.0
27358;BME280;14831;50.474;7.616;2022-12-17T16:13:02;99020;;;-8.3;96.0
27358;BME280;14831;50.474;7.616;2022-12-17T16:18:02;99020;;;-8.2;96.2
27358;BME280;14831;50.474;7.616;2022-12-17T16:23:02;99010;;;-8.2;95.9
27358;BME280;14831;50.474;7.616;2022-12-17T16:28:02;99000;;;-8.4;95.7
27358;BME280;14831;50.474;7.616;2022-12-17T16:33:02;99000;;;-8.6;95.7
27358;BME280;14831;50.474;7.616;2022-12-17T16:38:02;99010;;;-8.6;95.8
27358;BME280;14831;50.474;7.616;2022-12-17T16:43:02;99020;;;-8.6;96.0
27358;BME280;14831;50.474;7.616;2022-12-17T16:48:02;99010;;;-8.7;95.5
27358;BME280;14831;50.474;7.616;2022-12-17T16:53:02;99020;;;-8.8;95.2
27358;BME280;14831;50.474;7.616;2022-12-17T16:58:02;99010;;;-8.8;95.6
27358;BME280;14831;50.474;7.616;2022-12-17T17:03:02;99010;;;-8.9;95.3
27358;BME280;14831;50.474;7.616;2022-12-17T17:08:02;99010;;;-9.2;95.0
27358;BME280;14831;50.474;7.616;2022-12-17T17:13:02;99020;;;-9.2;95.3
27358;BME280;14831;50.474;7.616;2022-12-17T17:18:02;99020;;;-9.2;95.1
27358;BME280;14831;50.474;7.616;2022-12-17T17:23:02;99020;;;-9.2;95.3
27358;BME280;14831;50.474;7.616;2022-12-17T17:28:02;99010;;;-9.3;95.0
27358;BME280;14831;50.474;7.616;2022-12-17T17:33:02;99010;;;-9.4;95.0
27358;BME280;14831;50.474;7.616;2022-12-17T17:38:02;99010;;;-9.4;94.9
27358;BME280;14831;50.474;7.616;2022-12-17T17:43:02;99010;;;-9.4;95.1
27358;BME280;14831;50.474;7.616;2022-12-17T17:48:02;99010;;;-9.5;95.0
27358;BME280;14831;50.474;7.616;2022-12-17T17:53:02;99000;;;-9.5;95.1
27358;BME280;14831;50.474;7.616;2022-12-17T17:58:02;99000;;;-9.5;94.9
27358;BME280;14831;50.474;7.616;2022-12-17T18:03:02;99010;;;-9.6;94.7
27358;BME280;14831;50.474;7.616;2022-12-17T18:08:02;99020;;;-9.7;94.6
27358;BME280;14831;50.474;7.616;2022-12-17T18:13:02;99010;;;-9.6;95.1
27358;BME280;14831;50.474;7.616;2022-12-17T18:18:02;99000;;;-9.7;94.7
27358;BME280;14831;50.474;7.616;2022-12-17T18:23:02;99000;;;-9.8;94.7
27358;BME280;14831;50.474;7.616;2022-12-17T18:28:02;99020;;;-9.8;94.7
27358;BME280;14831;50.474;7.616;2022-12-17T18:33:02;99030;;;-9.9;94.6
27358;BME280;14831;50.474;7.616;2022-12-17T18:38:02;99010;;;-9.9;94.8
27358;BME280;14831;50.474;7.616;2022-12-17T18:43:02;99020;;;-9.6;95.4
27358;BME280;14831;50.474;7.616;2022-12-17T18:48:02;99010;;;-9.6;95.0
27358;BME280;14831;50.474;7.616;2022-12-17T18:53:02;99020;;;-9.6;94.9
27358;BME280;14831;50.474;7.616;2022-12-17T18:58:02;99010;;;-9.7;94.8
27358;BME280;14831;50.474;7.616;2022-12-17T19:03:02;99000;;;-9.7;94.8
27358;BME280;14831;50.474;7.616;2022-12-17T19:08:02;99000;;;-9.8;94.6
27358;BME280;14831;50.474;7.616;2022-12-17T19:13:02;99010;;;-9.8;94.8
27358;BME280;14831;50.474;7.616;2022-12-17T19:18:02;99010;;;-9.9;94.4
27358;BME280;14831;50.474;7.616;2022-12-17T19:23:02;99010;;;-9.9;94.7
27358;BME280;14831;50.474;7.616;2022-12-17T19:28:02;99000;;;-9.9;94.6
27358;BME280;14831;50.474;7.616;2022-12-17T19:33:02;99010;;;-10.1;93.9
27358;BME280;14831;50.474;7.616;2022-12-17T19:38:02;99020;;;-10.1;94.5
27358;BME280;14831;50.474;7.616;2022-12-17T19:43:02;99020;;;-10.0;94.5
27358;BME280;14831;50.474;7.616;2022-12-17T19:48:02;99020;;;-9.9;94.7
27358;BME280;14831;50.474;7.616;2022-12-17T19:53:02;99030;;;-9.9;94.5
27358;BME280;14831;50.474;7.616;2022-12-17T19:58:02;99030;;;-9.9;94.5
27358;BME280;14831;50.474;7.616;2022-12-17T20:03:02;99040;;;-9.8;94.6
27358;BME280;14831;50.474;7.616;2022-12-17T20:08:02;99040;;;-9.9;94.3
27358;BME280;14831;50.474;7.616;2022-12-17T20:13:02;99040;;;-10.1;94.0
27358;BME280;14831;50.474;7.616;2022-12-17T20:18:02;99050;;;-10.2;94.4
27358;BME280;14831;50.474;7.616;2022-12-17T20:23:02;99040;;;-10.2;94.4
27358;BME280;14831;50.474;7.616;2022-12-17T20:28:02;99040;;;-10.3;94.3
27358;BME280;14831;50.474;7.616;2022-12-17T20:33:02;99030;;;-10.3;94.2
27358;BME280;14831;50.474;7.616;2022-12-17T20:38:02;99030;;;-10.3;94.1
27358;BME280;14831;50.474;7.616;2022-12-17T20:43:02;99040;;;-10.4;94.1
27358;BME280;14831;50.474;7.616;2022-12-17T20:48:02;99050;;;-10.3;94.4
27358;BME280;14831;50.474;7.616;2022-12-17T20:53:02;99060;;;-10.4;94.0
27358;BME280;14831;50.474;7.616;2022-12-17T20:58:02;99060;;;-10.4;94.1
27358;BME280;14831;50.474;7.616;2022-12-17T21:03:02;99060;;;-10.5;94.2
27358;BME280;14831;50.474;7.616;2022-12-17T21:08:02;99070;;;-10.4;94.4
27358;BME280;14831;50.474;7.616;2022-12-17T21:13:02;99080;;;-10.5;93.9
27358;BME280;14831;50.474;7.616;2022-12-17T21:18:02;99090;;;-10.6;93.8
27358;BME280;14831;50.474;7.616;2022-12-17T21:23:02;99080;;;-10.6;93.9
27358;BME280;14831;50.474;7.616;2022-12-17T21:28:02;99080;;;-10.7;94.1
27358;BME280;14831;50.474;7.616;2022-12-17T21:33:02;99090;;;-10.6;94.3
27358;BME280;14831;50.474;7.616;2022-12-17T21:38:02;99080;;;-10.6;93.9
27358;BME280;14831;50.474;7.616;2022-12-17T21:43:02;99070;;;-10.5;94.1
27358;BME280;14831;50.474;7.616;2022-12-17T21:48:02;99080;;;-10.4;94.2
27358;BME280;14831;50.474;7.616;2022-12-17T21:53:02;99080;;;-10.3;94.5
27358;BME280;14831;50.474;7.616;2022-12-17T21:58:02;99070;;;-10.2;94.2
27358;BME280;14831;50.474;7.616;2022-12-17T22:03:02;99070;;;-10.3;94.1
27358;BME280;14831;50.474;7.616;2022-12-17T22:08:02;99080;;;-10.3;94.2
27358;BME280;14831;50.474;7.616;2022-12-17T22:13:02;99080;;;-9.9;94.7
27358;BME280;14831;50.474;7.616;2022-12-17T22:18:02;99070;;;-9.9;94.5
27358;BME280;14831;50.474;7.616;2022-12-17T22:23:02;99070;;;-10.1;93.8
27358;BME280;14831;50.474;7.616;2022-12-17T22:28:02;99080;;;-10.1;94.7
27358;BME280;14831;50.474;7.616;2022-12-17T22:33:02;99070;;;-10.0;95.0
27358;BME280;14831;50.474;7.616;2022-12-17T22:38:02;99080;;;-9.9;94.9
27358;BME280;14831;50.474;7.616;2022-12-17T22:43:02;99090;;;-9.9;94.7
27358;BME280;14831;50.474;7.616;2022-12-17T22:48:02;99100;;;-10.0;94.5
27358;BME280;14831;50.474;7.616;2022-12-17T22:53:02;99110;;;-9.9;94.8
27358;BME280;14831;50.474;7.616;2022-12-17T22:58:02;99100;;;-9.9;94.5
27358;BME280;14831;50.474;7.616;2022-12-17T23:03:02;99110;;;-9.9;94.5
27358;BME280;14831;50.474;7.616;2022-12-17T23:08:02;99110;;;-10.0;94.5
27358;BME280;14831;50.474;7.616;2022-12-17T23:13:02;99110;;;-10.0;94.6
27358;BME280;14831;50.474;7.616;2022-12-17T23:18:05;99100;;;-10.0;94.4
27358;BME280;14831;50.474;7.616;2022-12-17T23:23:02;99100;;;-10.0;94.5
27358;BME280;14831;50.474;7.616;2022-12-17T23:28:02;99090;;;-10.2;94.1
27358;BME280;14831;50.474;7.616;2022-12-17T23:33:02;99080;;;-10.2;94.4
27358;BME280;14831;50.474;7.616;2022-12-17T23:38:02;99100;;;-10.0;94.7
27358;BME280;14831;50.474;7.616;2022-12-17T23:43:02;99090;;;-9.8;95.0
27358;BME280;14831;50.474;7.616;2022-12-17T23:48:02;99100;;;-9.6;95.1
27358;BME280;14831;50.474;7.616;2022-12-17T23:53:02;99100;;;-9.7;94.7
27358;BME280;14831;50.474;7.616;2022-12-17T23:58:02;99100;;;-9.6;95.0
